Anzahl Datensätze: 48
min. Temperatur: 8.4 °C
max. Temperatur: 15.9 °C
max. Windgeschwindigkeit: 1.4 km/h
Niederschlagsumme: 5.8 mm
| Datum |
Zeit |
Temp °C |
Feuchte % |
Taupunkt °C |
Luftdruck hPa |
Wind km/h |
Windrichtung |
Strahlung w/m² |
Niederschlag mm |
|---|---|---|---|---|---|---|---|---|---|
| 25.11.2024 | 00:00 | 12.6 | 78 | 8.9 | 1012.4 | 0.0 | OSO | 0 | 0.0 |
| 25.11.2024 | 00:30 | 12.4 | 78 | 8.7 | 1012.4 | 0.0 | NO | 0 | 0.0 |
| 25.11.2024 | 01:00 | 12.1 | 79 | 8.6 | 1011.9 | 0.0 | OSO | 0 | 0.0 |
| 25.11.2024 | 01:30 | 11.9 | 79 | 8.4 | 1011.7 | 0.0 | O | 0 | 0.0 |
| 25.11.2024 | 02:00 | 12.3 | 77 | 8.4 | 1011.2 | 0.0 | OSO | 0 | 0.0 |
| 25.11.2024 | 02:30 | 12.4 | 76 | 8.3 | 1011.2 | 0.0 | O | 0 | 0.0 |
| 25.11.2024 | 03:00 | 12.4 | 76 | 8.3 | 1010.8 | 0.0 | NO | 0 | 0.0 |
| 25.11.2024 | 03:30 | 12.6 | 75 | 8.3 | 1010.6 | 0.0 | OSO | 0 | 0.0 |
| 25.11.2024 | 04:00 | 12.7 | 75 | 8.4 | 1010.3 | 0.0 | OSO | 0 | 0.0 |
| 25.11.2024 | 04:30 | 12.8 | 75 | 8.5 | 1009.8 | 0.0 | O | 0 | 0.0 |
| 25.11.2024 | 05:00 | 12.9 | 75 | 8.6 | 1009.4 | 0.0 | SO | 0 | 0.0 |
| 25.11.2024 | 05:30 | 13.1 | 75 | 8.8 | 1009.1 | 0.0 | W | 0 | 0.0 |
| 25.11.2024 | 06:00 | 13.2 | 75 | 8.9 | 1008.8 | 0.0 | OSO | 0 | 0.0 |
| 25.11.2024 | 06:30 | 13.4 | 75 | 9.1 | 1008.5 | 0.0 | OSO | 0 | 0.0 |
| 25.11.2024 | 07:00 | 13.7 | 75 | 9.3 | 1008.3 | 0.0 | W | 0 | 0.0 |
| 25.11.2024 | 07:30 | 13.7 | 76 | 9.5 | 1007.7 | 0.0 | NO | 0 | 0.0 |
| 25.11.2024 | 08:00 | 13.9 | 76 | 9.7 | 1007.7 | 0.0 | NNW | 0 | 0.0 |
| 25.11.2024 | 08:30 | 14.2 | 75 | 9.8 | 1007.5 | 0.0 | NO | 7 | 0.0 |
| 25.11.2024 | 09:00 | 14.6 | 75 | 10.2 | 1007.6 | 0.0 | NW | 21 | 0.0 |
| 25.11.2024 | 09:30 | 14.8 | 74 | 10.2 | 1007.8 | 0.0 | N | 18 | 0.0 |
| 25.11.2024 | 10:00 | 14.9 | 75 | 10.5 | 1007.8 | 0.0 | NNW | 19 | 0.0 |
| 25.11.2024 | 10:30 | 14.8 | 75 | 10.4 | 1007.8 | 0.0 | NNO | 51 | 0.0 |
| 25.11.2024 | 11:00 | 15.1 | 74 | 10.5 | 1007.8 | 0.0 | SSO | 32 | 0.0 |
| 25.11.2024 | 11:30 | 15.5 | 73 | 10.7 | 1007.7 | 0.0 | S | 60 | 0.0 |
| 25.11.2024 | 12:00 | 15.8 | 73 | 11.0 | 1007.2 | 0.0 | S | 56 | 0.0 |
| 25.11.2024 | 12:30 | 15.9 | 72 | 10.9 | 1006.6 | 0.0 | SO | 56 | 0.0 |
| 25.11.2024 | 13:00 | 15.7 | 75 | 11.3 | 1006.8 | 0.0 | W | 65 | 0.0 |
| 25.11.2024 | 13:30 | 14.5 | 82 | 11.5 | 1006.7 | 0.0 | NNW | 30 | 0.6 |
| 25.11.2024 | 14:00 | 13.8 | 85 | 11.3 | 1006.6 | 0.0 | NNO | 44 | 1.2 |
| 25.11.2024 | 14:30 | 13.4 | 87 | 11.3 | 1006.7 | 0.0 | OSO | 14 | 1.8 |
| 25.11.2024 | 15:00 | 13.4 | 88 | 11.5 | 1007.3 | 0.0 | W | 7 | 2.0 |
| 25.11.2024 | 15:30 | 12.9 | 90 | 11.3 | 1007.8 | 0.0 | W | 11 | 3.0 |
| 25.11.2024 | 16:00 | 12.7 | 90 | 11.1 | 1008.3 | 0.0 | WNW | 5 | 3.2 |
| 25.11.2024 | 16:30 | 12.5 | 91 | 11.1 | 1008.8 | 0.0 | NW | 0 | 3.4 |
| 25.11.2024 | 17:00 | 12.2 | 92 | 10.9 | 1008.8 | 0.0 | NW | 0 | 4.4 |
| 25.11.2024 | 17:30 | 12.1 | 93 | 11.0 | 1009.1 | 0.0 | NW | 0 | 4.6 |
| 25.11.2024 | 18:00 | 11.4 | 90 | 9.8 | 1009.9 | 0.0 | W | 0 | 5.2 |
| 25.11.2024 | 18:30 | 10.8 | 91 | 9.4 | 1010.8 | 0.0 | NNW | 0 | 5.4 |
| 25.11.2024 | 19:00 | 10.4 | 91 | 9.0 | 1011.1 | 0.0 | WNW | 0 | 5.8 |
| 25.11.2024 | 19:30 | 9.8 | 91 | 8.4 | 1012.1 | 0.0 | NW | 0 | 5.8 |
| 25.11.2024 | 20:00 | 9.4 | 91 | 8.0 | 1012.4 | 0.0 | NNW | 0 | 5.8 |
| 25.11.2024 | 20:30 | 9.1 | 92 | 7.9 | 1012.6 | 0.0 | W | 0 | 5.8 |
| 25.11.2024 | 21:00 | 8.9 | 91 | 7.5 | 1013.5 | 0.0 | NNW | 0 | 5.8 |
| 25.11.2024 | 21:30 | 8.8 | 91 | 7.4 | 1013.5 | 0.0 | NW | 0 | 5.8 |
| 25.11.2024 | 22:00 | 8.8 | 92 | 7.6 | 1014.1 | 0.0 | WNW | 0 | 5.8 |
| 25.11.2024 | 22:30 | 8.7 | 92 | 7.5 | 1014.3 | 0.0 | W | 0 | 5.8 |
| 25.11.2024 | 23:00 | 8.6 | 92 | 7.4 | 1015.1 | 0.0 | WNW | 0 | 5.8 |
| 25.11.2024 | 23:30 | 8.4 | 92 | 7.2 | 1015.6 | 0.0 | NW | 0 | 5.8 |